createdAt,value
2019-05-19T00:00:36.965Z,10.37
2019-05-19T00:03:23.135Z,8.50
2019-05-19T00:06:09.280Z,8.77
2019-05-19T00:08:55.530Z,10.63
2019-05-19T00:11:41.743Z,9.57
2019-05-19T00:14:27.870Z,9.97
2019-05-19T00:17:14.315Z,10.27
2019-05-19T00:20:00.381Z,9.97
2019-05-19T00:22:46.385Z,9.40
2019-05-19T00:25:33.435Z,12.37
2019-05-19T00:28:19.315Z,12.90
2019-05-19T00:31:05.305Z,8.73
2019-05-19T00:33:51.659Z,9.07
2019-05-19T00:36:37.660Z,9.47
2019-05-19T00:39:23.647Z,11.63
2019-05-19T00:42:09.921Z,10.33
2019-05-19T00:44:56.116Z,9.03
2019-05-19T00:47:42.236Z,11.27
2019-05-19T00:50:28.405Z,10.60
2019-05-19T00:53:14.435Z,8.83
2019-05-19T00:56:01.693Z,8.83
2019-05-19T00:58:48.760Z,9.23
2019-05-19T01:01:34.963Z,9.00
2019-05-19T01:04:21.100Z,9.43
2019-05-19T01:07:07.207Z,10.00
2019-05-19T01:09:53.380Z,9.87
2019-05-19T01:12:39.705Z,11.03
2019-05-19T01:15:25.901Z,9.17
2019-05-19T01:18:11.975Z,8.70
2019-05-19T01:20:58.280Z,9.67
2019-05-19T01:23:44.280Z,8.47
2019-05-19T01:26:30.465Z,9.23
2019-05-19T01:29:16.527Z,9.97
2019-05-19T01:32:02.721Z,8.73
2019-05-19T01:34:48.961Z,8.20
2019-05-19T01:37:35.070Z,9.40
2019-05-19T01:40:21.220Z,13.03
2019-05-19T01:43:07.529Z,9.90
2019-05-19T01:45:53.662Z,10.63
2019-05-19T01:48:39.706Z,11.30
2019-05-19T01:51:25.932Z,11.30
2019-05-19T01:54:12.061Z,10.80
2019-05-19T01:56:58.445Z,13.10
2019-05-19T01:59:44.581Z,10.43
2019-05-19T02:02:30.730Z,10.97
2019-05-19T02:05:16.885Z,11.57
2019-05-19T02:08:03.039Z,10.50
2019-05-19T02:10:49.152Z,10.20
2019-05-19T02:13:35.601Z,10.90
2019-05-19T02:16:21.647Z,10.10
2019-05-19T02:19:07.771Z,11.03
2019-05-19T02:21:54.116Z,11.03
2019-05-19T02:24:40.292Z,10.83
2019-05-19T02:27:26.395Z,11.70
2019-05-19T02:30:12.487Z,10.40
2019-05-19T02:32:58.694Z,10.77
2019-05-19T02:35:44.861Z,9.83
2019-05-19T02:38:30.925Z,12.00
2019-05-19T02:41:17.842Z,11.23
2019-05-19T02:44:04.951Z,9.70
2019-05-19T02:46:51.145Z,10.33
2019-05-19T02:49:37.280Z,10.50
2019-05-19T02:52:24.364Z,12.33
2019-05-19T02:55:10.457Z,11.03
2019-05-19T02:57:57.455Z,11.10
2019-05-19T03:00:43.934Z,10.83
2019-05-19T03:03:30.072Z,12.70
2019-05-19T03:06:16.140Z,12.90
2019-05-19T03:09:04.308Z,12.53
2019-05-19T03:11:50.219Z,12.67
2019-05-19T03:14:36.202Z,12.07
2019-05-19T03:17:22.499Z,11.63
2019-05-19T03:20:08.575Z,11.50
2019-05-19T03:22:54.605Z,11.00
2019-05-19T03:25:44.088Z,10.97
2019-05-19T03:28:28.821Z,11.90
2019-05-19T03:31:25.182Z,11.80
2019-05-19T03:34:11.566Z,13.90
2019-05-19T03:36:58.039Z,12.77
2019-05-19T03:39:44.119Z,12.40
2019-05-19T03:42:30.306Z,12.93
2019-05-19T03:45:16.452Z,13.53
2019-05-19T03:48:02.541Z,12.40
2019-05-19T03:50:48.676Z,11.77
2019-05-19T03:53:34.926Z,11.40
2019-05-19T03:56:20.981Z,11.10
2019-05-19T03:59:07.127Z,12.33
2019-05-19T04:01:53.230Z,12.80
2019-05-19T04:04:39.396Z,12.00
2019-05-19T04:07:25.485Z,12.80
2019-05-19T04:10:12.582Z,11.53
2019-05-19T04:12:58.756Z,12.40
2019-05-19T04:15:44.984Z,11.73
2019-05-19T04:18:30.995Z,12.70
2019-05-19T04:21:16.991Z,11.87
2019-05-19T04:24:03.310Z,12.13
2019-05-19T04:26:49.431Z,11.73
2019-05-19T04:29:39.194Z,15.03
2019-05-19T04:32:23.881Z,11.07
2019-05-19T04:35:09.946Z,9.60
2019-05-19T04:37:56.390Z,10.30
2019-05-19T04:40:42.736Z,9.83
2019-05-19T04:43:28.800Z,12.80
2019-05-19T04:46:14.991Z,10.03
2019-05-19T04:49:01.261Z,10.53
2019-05-19T04:51:47.245Z,10.50
2019-05-19T04:54:33.380Z,9.63
2019-05-19T04:57:19.483Z,10.10
2019-05-19T05:00:05.855Z,9.63
2019-05-19T05:02:51.997Z,9.83
2019-05-19T05:05:37.976Z,9.57
2019-05-19T05:08:29.988Z,10.27
2019-05-19T05:11:11.880Z,10.00
2019-05-19T05:13:57.982Z,11.60
2019-05-19T05:16:44.177Z,10.77
2019-05-19T05:19:30.418Z,11.67
2019-05-19T05:22:22.135Z,12.10
2019-05-19T05:25:04.715Z,12.60
2019-05-19T05:27:50.851Z,11.77
2019-05-19T05:30:36.950Z,11.40
2019-05-19T05:33:23.107Z,12.10
2019-05-19T05:36:09.465Z,11.87
2019-05-19T05:38:55.517Z,12.13
2019-05-19T05:41:41.598Z,11.90
2019-05-19T05:44:27.841Z,12.07
2019-05-19T05:47:14.015Z,12.40
2019-05-19T05:50:00.264Z,12.50
2019-05-19T05:52:46.358Z,12.87
2019-05-19T05:55:32.555Z,12.53
2019-05-19T05:58:18.973Z,12.67
2019-05-19T06:01:05.021Z,12.30
2019-05-19T06:03:51.218Z,12.97
2019-05-19T06:06:37.351Z,13.70
2019-05-19T06:09:23.425Z,12.13
2019-05-19T06:12:09.555Z,13.10
2019-05-19T06:14:55.819Z,13.87
2019-05-19T06:17:41.928Z,13.60
2019-05-19T06:20:28.145Z,14.50
2019-05-19T06:23:14.240Z,14.30
2019-05-19T06:26:00.431Z,13.70
2019-05-19T06:28:46.696Z,14.47
2019-05-19T06:31:32.785Z,14.83
2019-05-19T06:34:18.911Z,15.53
2019-05-19T06:37:05.221Z,14.93
2019-05-19T06:39:51.370Z,15.47
2019-05-19T06:42:37.540Z,16.30
2019-05-19T06:45:23.960Z,15.43
2019-05-19T06:48:10.256Z,14.57
2019-05-19T06:50:56.446Z,14.43
2019-05-19T06:53:42.522Z,13.07
2019-05-19T06:56:28.534Z,12.93
2019-05-19T06:59:15.046Z,12.30
2019-05-19T07:02:01.036Z,12.50
2019-05-19T07:04:47.215Z,11.27
2019-05-19T07:07:33.541Z,12.00
2019-05-19T07:10:19.650Z,11.83
2019-05-19T07:13:05.659Z,12.27
2019-05-19T07:15:51.946Z,12.43
2019-05-19T07:18:37.990Z,13.97
2019-05-19T07:21:24.116Z,10.67
2019-05-19T07:24:11.589Z,11.07
2019-05-19T07:26:57.789Z,11.23
2019-05-19T07:29:44.011Z,11.90
2019-05-19T07:32:30.006Z,11.80
2019-05-19T07:35:16.337Z,11.27
2019-05-19T07:38:02.640Z,11.30
2019-05-19T07:40:48.581Z,11.13
2019-05-19T07:43:34.569Z,11.80
2019-05-19T07:46:20.915Z,11.60
2019-05-19T07:49:07.085Z,11.53
2019-05-19T07:51:53.365Z,11.63
2019-05-19T07:54:39.646Z,11.70
2019-05-19T07:57:25.603Z,12.33
2019-05-19T08:00:11.815Z,11.57
2019-05-19T08:02:57.823Z,10.47
2019-05-19T08:05:43.931Z,11.10
2019-05-19T08:08:30.232Z,11.30
2019-05-19T08:11:16.370Z,12.03
2019-05-19T08:14:02.476Z,11.67
2019-05-19T08:16:48.791Z,10.40
2019-05-19T08:19:34.840Z,12.00
2019-05-19T08:22:21.037Z,11.87
2019-05-19T08:25:07.179Z,11.60
2019-05-19T08:27:53.152Z,12.27
2019-05-19T08:30:39.634Z,12.03
2019-05-19T08:33:25.998Z,13.00
2019-05-19T08:36:12.046Z,13.03
2019-05-19T08:38:58.335Z,12.57
2019-05-19T08:41:44.361Z,11.03
2019-05-19T08:44:30.580Z,12.33
2019-05-19T08:47:18.677Z,12.00
2019-05-19T08:50:05.732Z,12.20
2019-05-19T08:52:51.692Z,12.63
2019-05-19T08:55:37.945Z,13.27
2019-05-19T08:58:23.951Z,11.70
2019-05-19T09:01:10.141Z,13.37
2019-05-19T09:03:56.451Z,12.07
2019-05-19T09:06:42.415Z,12.10
2019-05-19T09:09:28.492Z,12.15
2019-05-19T09:12:14.675Z,11.40
2019-05-19T09:15:00.789Z,12.53
2019-05-19T09:17:47.011Z,12.37
2019-05-19T09:20:33.036Z,11.47
2019-05-19T09:23:19.231Z,10.33
2019-05-19T09:26:05.606Z,11.30
2019-05-19T09:28:51.780Z,10.50
2019-05-19T09:31:41.230Z,12.37
2019-05-19T09:34:26.431Z,11.03
2019-05-19T09:37:12.501Z,10.83
2019-05-19T09:39:58.648Z,10.43
2019-05-19T09:42:45.036Z,11.17
2019-05-19T09:45:31.241Z,11.67
2019-05-19T09:48:17.430Z,11.43
2019-05-19T09:51:03.885Z,11.13
2019-05-19T09:53:49.800Z,9.70
2019-05-19T09:56:35.948Z,10.17
2019-05-19T09:59:21.982Z,10.33
2019-05-19T10:02:08.150Z,8.93
2019-05-19T10:04:54.326Z,9.50
2019-05-19T10:07:40.330Z,9.80
2019-05-19T10:10:35.705Z,9.60
2019-05-19T10:13:21.856Z,8.47
2019-05-19T10:16:08.136Z,9.50
2019-05-19T10:18:54.290Z,9.43
2019-05-19T10:21:40.440Z,8.63
2019-05-19T10:24:26.646Z,8.33
2019-05-19T10:27:12.764Z,8.50
2019-05-19T10:29:59.003Z,7.80
2019-05-19T10:32:45.320Z,7.97
2019-05-19T10:35:31.411Z,7.43
2019-05-19T10:38:17.985Z,7.70
2019-05-19T10:41:04.425Z,8.60
2019-05-19T10:44:00.800Z,8.50
2019-05-19T10:46:47.110Z,9.47
2019-05-19T10:49:33.279Z,8.83
2019-05-19T10:52:19.635Z,7.90
2019-05-19T10:55:06.041Z,7.50
2019-05-19T10:57:52.206Z,7.07
2019-05-19T11:00:38.485Z,7.90
2019-05-19T11:03:24.933Z,7.70
2019-05-19T11:06:10.991Z,8.93
2019-05-19T11:08:57.275Z,10.13
2019-05-19T11:11:43.369Z,9.87
2019-05-19T11:14:29.451Z,10.77
2019-05-19T11:17:15.765Z,9.63
2019-05-19T11:20:02.098Z,10.03
2019-05-19T11:22:49.921Z,10.80
2019-05-19T11:25:49.287Z,9.80
2019-05-19T11:28:24.349Z,9.37
2019-05-19T11:31:10.424Z,13.23
2019-05-19T11:33:57.575Z,11.10
2019-05-19T11:36:43.475Z,10.60
2019-05-19T11:39:29.621Z,9.97
2019-05-19T11:42:15.906Z,9.40
2019-05-19T11:45:02.007Z,10.20
2019-05-19T11:47:48.411Z,10.33
2019-05-19T11:50:34.577Z,9.47
2019-05-19T11:53:20.770Z,10.00
2019-05-19T11:56:11.002Z,9.90
2019-05-19T11:58:55.066Z,10.03
2019-05-19T12:01:41.026Z,11.90
2019-05-19T12:04:27.216Z,8.57
2019-05-19T12:07:13.291Z,9.10
2019-05-19T12:09:59.470Z,9.43
2019-05-19T12:12:45.708Z,10.20
2019-05-19T12:15:31.822Z,8.97
2019-05-19T12:18:17.923Z,8.83
2019-05-19T12:21:04.157Z,10.27
2019-05-19T12:23:50.402Z,10.20
2019-05-19T12:26:36.551Z,9.30
2019-05-19T12:29:22.766Z,11.10
2019-05-19T12:32:08.871Z,9.17
2019-05-19T12:34:55.161Z,8.60
2019-05-19T12:37:44.246Z,8.90
2019-05-19T12:40:30.459Z,9.20
2019-05-19T12:43:16.635Z,9.63
2019-05-19T12:46:02.841Z,9.37
2019-05-19T12:48:49.076Z,10.87
2019-05-19T12:51:35.280Z,10.10
2019-05-19T12:54:21.391Z,10.00
2019-05-19T12:57:07.497Z,8.80
2019-05-19T12:59:53.736Z,8.97
2019-05-19T13:02:39.792Z,8.80
2019-05-19T13:05:25.928Z,9.47
2019-05-19T13:08:12.333Z,8.47
2019-05-19T13:10:58.280Z,8.03
2019-05-19T13:13:44.395Z,8.70
2019-05-19T13:16:30.681Z,9.00
2019-05-19T13:19:16.877Z,8.50
2019-05-19T13:22:03.102Z,7.93
2019-05-19T13:24:49.126Z,8.77
2019-05-19T13:27:35.187Z,8.40
2019-05-19T13:30:21.481Z,8.77
2019-05-19T13:33:07.533Z,8.00
2019-05-19T13:35:53.620Z,8.73
2019-05-19T13:38:40.051Z,8.77
2019-05-19T13:41:25.960Z,8.47
2019-05-19T13:44:12.276Z,8.50
2019-05-19T13:46:59.905Z,9.03
2019-05-19T13:49:46.055Z,8.03
2019-05-19T13:52:32.287Z,8.17
2019-05-19T13:55:18.556Z,9.07
2019-05-19T13:58:04.625Z,10.77
2019-05-19T14:00:50.685Z,9.47
2019-05-19T14:03:36.917Z,8.70
2019-05-19T14:06:23.021Z,9.17
2019-05-19T14:09:09.246Z,9.50
2019-05-19T14:11:55.285Z,9.50
2019-05-19T14:14:41.583Z,9.93
2019-05-19T14:17:28.221Z,10.33
2019-05-19T14:20:15.547Z,10.13
2019-05-19T14:23:01.695Z,10.27
2019-05-19T14:25:48.031Z,9.43
2019-05-19T14:28:34.231Z,10.57
2019-05-19T14:31:21.719Z,11.20
2019-05-19T14:34:08.246Z,10.23
2019-05-19T14:36:54.396Z,9.97
2019-05-19T14:39:40.673Z,9.70
2019-05-19T14:42:44.921Z,9.60
2019-05-19T14:45:31.659Z,9.30
2019-05-19T14:48:17.915Z,10.60
2019-05-19T14:51:04.190Z,9.10
2019-05-19T14:53:50.311Z,8.47
2019-05-19T14:56:36.432Z,9.50
2019-05-19T14:59:22.851Z,10.00
2019-05-19T15:02:09.060Z,10.13
2019-05-19T15:04:55.488Z,9.83
2019-05-19T15:07:41.505Z,9.40
2019-05-19T15:10:27.750Z,9.53
2019-05-19T15:13:13.807Z,14.10
2019-05-19T15:15:59.918Z,23.83
2019-05-19T15:18:45.982Z,15.43
2019-05-19T15:21:33.340Z,9.07
2019-05-19T15:24:19.524Z,9.33
2019-05-19T15:27:05.651Z,22.63
2019-05-19T15:29:53.274Z,76.50
2019-05-19T15:32:39.530Z,139.80
2019-05-19T15:35:25.670Z,72.13
2019-05-19T15:38:11.859Z,39.83
2019-05-19T15:40:58.103Z,33.30
2019-05-19T15:43:44.264Z,29.77
2019-05-19T15:46:30.535Z,8.10
2019-05-19T15:49:16.510Z,16.43
2019-05-19T15:52:05.256Z,61.13
2019-05-19T15:54:51.067Z,43.63
2019-05-19T15:57:37.176Z,7.67
2019-05-19T16:00:23.346Z,6.40
2019-05-19T16:03:09.429Z,5.70
2019-05-19T16:05:55.660Z,5.73
2019-05-19T16:08:41.772Z,5.97
2019-05-19T16:11:27.965Z,6.50
2019-05-19T16:14:14.020Z,6.53
2019-05-19T16:17:00.244Z,6.20
2019-05-19T16:19:46.384Z,6.10
2019-05-19T16:22:32.380Z,6.00
2019-05-19T16:25:18.655Z,9.00
2019-05-19T16:28:04.728Z,7.43
2019-05-19T16:30:50.963Z,13.50
2019-05-19T16:33:37.179Z,9.40
2019-05-19T16:36:23.229Z,7.27
2019-05-19T16:39:09.364Z,7.53
2019-05-19T16:41:55.375Z,10.90
2019-05-19T16:44:41.600Z,6.43
2019-05-19T16:47:27.804Z,6.27
2019-05-19T16:50:14.014Z,11.90
2019-05-19T16:53:00.030Z,11.23
2019-05-19T16:55:46.379Z,5.20
2019-05-19T16:58:44.366Z,5.77
2019-05-19T17:01:20.416Z,6.10
2019-05-19T17:04:06.650Z,5.67
2019-05-19T17:06:52.748Z,5.90
2019-05-19T17:09:38.965Z,5.77
2019-05-19T17:12:25.144Z,6.60
2019-05-19T17:15:11.194Z,7.30
2019-05-19T17:17:57.364Z,8.33
2019-05-19T17:20:43.475Z,5.00
2019-05-19T17:23:29.720Z,4.93
2019-05-19T17:26:16.299Z,4.87
2019-05-19T17:29:02.315Z,4.93
2019-05-19T17:31:48.538Z,5.00
2019-05-19T17:34:34.780Z,5.20
2019-05-19T17:37:20.939Z,4.57
2019-05-19T17:40:07.661Z,4.77
2019-05-19T17:42:53.985Z,3.93
2019-05-19T17:45:40.229Z,8.00
2019-05-19T17:48:27.093Z,16.23
2019-05-19T17:51:13.710Z,4.83
2019-05-19T17:53:59.854Z,5.57
2019-05-19T17:56:47.144Z,4.57
2019-05-19T17:59:33.844Z,4.90
2019-05-19T18:02:20.387Z,4.80
2019-05-19T18:05:06.964Z,7.10
2019-05-19T18:07:53.180Z,15.93
2019-05-19T18:10:39.407Z,5.80
2019-05-19T18:13:25.685Z,4.00
2019-05-19T18:16:12.119Z,4.03
2019-05-19T18:18:58.153Z,4.03
2019-05-19T18:21:44.404Z,3.50
2019-05-19T18:24:30.225Z,3.77
2019-05-19T18:27:16.414Z,5.27
2019-05-19T18:30:02.844Z,3.67
2019-05-19T18:32:48.966Z,4.37
2019-05-19T18:35:34.926Z,3.83
2019-05-19T18:38:20.989Z,6.37
2019-05-19T18:41:07.405Z,8.07
2019-05-19T18:43:53.820Z,5.27
2019-05-19T18:46:40.820Z,5.50
2019-05-19T18:49:26.869Z,4.27
2019-05-19T18:52:13.065Z,4.23
2019-05-19T18:54:59.360Z,4.30
2019-05-19T18:57:45.790Z,4.30
2019-05-19T19:00:34.317Z,4.27
2019-05-19T19:03:20.799Z,4.03
2019-05-19T19:06:06.890Z,4.70
2019-05-19T19:08:53.116Z,4.87
2019-05-19T19:11:39.492Z,5.10
2019-05-19T19:14:27.646Z,3.90
2019-05-19T19:17:14.057Z,4.37
2019-05-19T19:20:00.562Z,5.17
2019-05-19T19:22:47.007Z,4.70
2019-05-19T19:25:33.423Z,4.60
2019-05-19T19:28:19.985Z,4.83
2019-05-19T19:31:05.975Z,5.70
2019-05-19T19:33:52.306Z,4.80
2019-05-19T19:36:38.935Z,5.70
2019-05-19T19:39:25.543Z,5.03
2019-05-19T19:42:11.705Z,5.23
2019-05-19T19:44:58.445Z,5.20
2019-05-19T19:47:45.055Z,5.30
2019-05-19T19:50:31.202Z,5.50
2019-05-19T19:53:17.656Z,5.03
2019-05-19T19:56:03.649Z,5.47
2019-05-19T19:58:50.250Z,5.90
2019-05-19T20:01:36.797Z,5.33
2019-05-19T20:04:23.330Z,5.67
2019-05-19T20:07:09.785Z,6.03
2019-05-19T20:09:56.231Z,7.17
2019-05-19T20:12:42.480Z,5.97
2019-05-19T20:15:28.740Z,7.43
2019-05-19T20:18:14.976Z,6.17
2019-05-19T20:21:01.110Z,7.27
2019-05-19T20:23:47.185Z,6.30
2019-05-19T20:26:33.269Z,5.70
2019-05-19T20:29:19.489Z,6.40
2019-05-19T20:32:05.627Z,7.20
2019-05-19T20:34:51.787Z,8.70
2019-05-19T20:37:38.197Z,8.40
2019-05-19T20:40:24.632Z,7.67
2019-05-19T20:43:10.746Z,8.23
2019-05-19T20:45:57.484Z,7.27
2019-05-19T20:48:43.947Z,8.77
2019-05-19T20:51:32.873Z,9.63
2019-05-19T20:54:19.064Z,10.03
2019-05-19T20:57:05.079Z,8.47
2019-05-19T20:59:51.266Z,8.57
2019-05-19T21:02:37.666Z,9.20
2019-05-19T21:05:23.785Z,8.93
2019-05-19T21:08:09.939Z,10.30
2019-05-19T21:10:56.064Z,9.07
2019-05-19T21:13:42.204Z,9.37
2019-05-19T21:16:28.423Z,10.23
2019-05-19T21:19:14.565Z,9.93
2019-05-19T21:22:00.639Z,10.07
2019-05-19T21:24:46.845Z,9.17
2019-05-19T21:27:32.956Z,8.63
2019-05-19T21:30:19.020Z,10.30
2019-05-19T21:33:05.375Z,8.73
2019-05-19T21:35:51.415Z,10.83
2019-05-19T21:38:37.490Z,10.37
2019-05-19T21:41:23.690Z,10.53
2019-05-19T21:44:09.800Z,9.73
2019-05-19T21:46:55.930Z,9.33
2019-05-19T21:49:42.082Z,11.07
2019-05-19T21:52:28.249Z,12.23
2019-05-19T21:55:14.656Z,12.57
2019-05-19T21:58:00.460Z,10.87
2019-05-19T22:00:47.021Z,13.00
2019-05-19T22:03:33.531Z,12.40
2019-05-19T22:06:21.454Z,12.80
2019-05-19T22:09:07.421Z,11.87
2019-05-19T22:11:53.860Z,12.97
2019-05-19T22:14:39.890Z,11.43
2019-05-19T22:17:25.977Z,13.27
2019-05-19T22:20:12.405Z,11.47
2019-05-19T22:22:58.365Z,11.77
2019-05-19T22:25:44.960Z,11.67
2019-05-19T22:28:31.364Z,12.33
2019-05-19T22:31:17.416Z,13.37
2019-05-19T22:34:03.629Z,13.17
2019-05-19T22:36:49.579Z,11.87
2019-05-19T22:39:35.746Z,14.27
2019-05-19T22:42:21.995Z,13.17
2019-05-19T22:45:08.195Z,14.17
2019-05-19T22:47:54.264Z,12.93
2019-05-19T22:50:40.608Z,14.17
2019-05-19T22:53:26.810Z,12.53
2019-05-19T22:56:13.158Z,14.30
2019-05-19T22:58:59.361Z,12.80
2019-05-19T23:01:51.771Z,13.90
2019-05-19T23:04:33.635Z,13.87
2019-05-19T23:07:19.860Z,14.10
2019-05-19T23:10:06.549Z,14.70
2019-05-19T23:12:52.842Z,13.20
2019-05-19T23:15:38.986Z,12.83
2019-05-19T23:18:25.034Z,16.83
2019-05-19T23:21:11.211Z,14.60
2019-05-19T23:23:57.345Z,14.80
2019-05-19T23:26:43.540Z,12.53
2019-05-19T23:29:29.850Z,12.10
2019-05-19T23:32:15.879Z,14.10
2019-05-19T23:35:02.072Z,13.97
2019-05-19T23:37:48.190Z,15.43
2019-05-19T23:40:34.273Z,14.40
2019-05-19T23:43:20.444Z,14.37
2019-05-19T23:46:06.631Z,16.47
2019-05-19T23:48:52.725Z,14.00
2019-05-19T23:51:39.042Z,16.93
2019-05-19T23:54:25.294Z,15.67
2019-05-19T23:57:11.600Z,16.40
2019-05-19T23:59:58.040Z,18.10
